createdAt,value
2018-05-23T00:00:43.350Z,44.10
2018-05-23T00:03:11.627Z,44.00
2018-05-23T00:05:40.507Z,44.40
2018-05-23T00:08:07.985Z,44.30
2018-05-23T00:10:35.732Z,44.50
2018-05-23T00:13:03.993Z,44.20
2018-05-23T00:15:31.498Z,44.20
2018-05-23T00:17:58.982Z,44.10
2018-05-23T00:20:26.456Z,44.10
2018-05-23T00:22:53.939Z,44.00
2018-05-23T00:25:21.543Z,44.00
2018-05-23T00:27:49.070Z,43.90
2018-05-23T00:30:41.319Z,43.80
2018-05-23T00:33:08.813Z,44.10
2018-05-23T00:35:36.315Z,44.00
2018-05-23T00:38:03.815Z,44.40
2018-05-23T00:40:48.253Z,44.80
2018-05-23T00:43:15.794Z,44.70
2018-05-23T00:45:43.254Z,44.80
2018-05-23T00:48:10.725Z,45.20
2018-05-23T00:50:39.274Z,45.80
2018-05-23T00:53:07.542Z,46.20
2018-05-23T00:55:35.222Z,46.10
2018-05-23T00:58:03.463Z,45.50
2018-05-23T01:00:31.126Z,45.40
2018-05-23T01:02:58.631Z,45.80
2018-05-23T01:05:26.867Z,46.10
2018-05-23T01:07:55.243Z,46.00
2018-05-23T01:10:23.074Z,46.10
2018-05-23T01:12:50.558Z,46.20
2018-05-23T01:15:18.338Z,46.40
2018-05-23T01:17:45.812Z,46.60
2018-05-23T01:20:14.459Z,47.10
2018-05-23T01:22:42.252Z,47.00
2018-05-23T01:25:09.756Z,47.30
2018-05-23T01:27:37.299Z,47.30
2018-05-23T01:30:04.789Z,47.30
2018-05-23T01:32:32.279Z,47.20
2018-05-23T01:34:59.867Z,47.30
2018-05-23T01:37:28.267Z,47.80
2018-05-23T01:39:55.760Z,47.80
2018-05-23T01:42:23.247Z,48.20
2018-05-23T01:44:52.311Z,48.60
2018-05-23T01:47:19.848Z,48.40
2018-05-23T01:49:47.376Z,48.50
2018-05-23T01:52:15.668Z,48.50
2018-05-23T01:54:43.895Z,48.30
2018-05-23T01:57:11.640Z,48.50
2018-05-23T01:59:39.343Z,48.70
2018-05-23T02:02:07.600Z,49.40
2018-05-23T02:04:35.901Z,49.70
2018-05-23T02:07:04.043Z,49.60
2018-05-23T02:09:31.633Z,50.00
2018-05-23T02:11:59.891Z,50.00
2018-05-23T02:14:27.391Z,50.00
2018-05-23T02:16:54.884Z,49.90
2018-05-23T02:19:22.444Z,49.90
2018-05-23T02:21:49.929Z,49.80
2018-05-23T02:24:18.183Z,49.80
2018-05-23T02:26:45.655Z,49.80
2018-05-23T02:29:13.191Z,50.10
2018-05-23T02:31:40.843Z,50.30
2018-05-23T02:34:08.337Z,50.20
2018-05-23T02:36:36.781Z,50.10
2018-05-23T02:39:04.267Z,50.00
2018-05-23T02:41:31.991Z,49.90
2018-05-23T02:43:59.464Z,49.80
2018-05-23T02:46:26.945Z,49.90
2018-05-23T02:48:55.215Z,50.00
2018-05-23T02:51:22.696Z,50.00
2018-05-23T02:53:51.012Z,50.20
2018-05-23T02:56:18.516Z,50.10
2018-05-23T02:58:46.004Z,50.20
2018-05-23T03:01:13.495Z,50.40
2018-05-23T03:03:41.226Z,50.60
2018-05-23T03:06:09.047Z,50.70
2018-05-23T03:08:36.555Z,50.80
2018-05-23T03:11:05.027Z,50.60
2018-05-23T03:13:32.525Z,50.50
2018-05-23T03:16:00.007Z,50.40
2018-05-23T03:18:28.345Z,49.90
2018-05-23T03:20:55.826Z,49.90
2018-05-23T03:23:23.306Z,49.70
2018-05-23T03:25:50.785Z,49.60
2018-05-23T03:28:18.295Z,49.50
2018-05-23T03:30:45.987Z,49.40
2018-05-23T03:33:14.156Z,49.20
2018-05-23T03:35:41.646Z,49.00
2018-05-23T03:38:09.239Z,48.90
2018-05-23T03:40:36.769Z,48.90
2018-05-23T03:43:04.310Z,48.80
2018-05-23T03:45:31.822Z,48.80
2018-05-23T03:47:59.287Z,49.00
2018-05-23T03:50:28.034Z,49.50
2018-05-23T03:52:56.554Z,49.90
2018-05-23T03:55:24.212Z,50.50
2018-05-23T03:57:51.639Z,51.10
2018-05-23T04:00:30.724Z,51.60
2018-05-23T04:03:09.910Z,52.10
2018-05-23T04:05:49.155Z,52.00
2018-05-23T04:08:16.685Z,52.10
2018-05-23T04:10:44.182Z,52.30
2018-05-23T04:13:11.719Z,52.40
2018-05-23T04:15:39.995Z,52.60
2018-05-23T04:18:07.495Z,52.80
2018-05-23T04:20:35.319Z,53.00
2018-05-23T04:23:02.783Z,53.10
2018-05-23T04:25:30.271Z,53.40
2018-05-23T04:27:57.770Z,53.80
2018-05-23T04:30:30.411Z,54.00
2018-05-23T04:32:57.936Z,54.50
2018-05-23T04:35:25.402Z,54.60
2018-05-23T04:37:53.063Z,54.90
2018-05-23T04:40:20.502Z,54.90
2018-05-23T04:42:48.019Z,55.00
2018-05-23T04:45:17.625Z,55.20
2018-05-23T04:47:46.087Z,55.20
2018-05-23T04:50:13.729Z,55.20
2018-05-23T04:52:41.465Z,55.30
2018-05-23T04:55:08.946Z,55.30
2018-05-23T04:57:37.112Z,55.30
2018-05-23T05:00:04.768Z,55.20
2018-05-23T05:02:33.552Z,55.10
2018-05-23T05:05:01.024Z,54.90
2018-05-23T05:07:30.437Z,54.80
2018-05-23T05:09:58.049Z,54.60
2018-05-23T05:12:26.246Z,54.30
2018-05-23T05:14:55.047Z,54.00
2018-05-23T05:19:55.504Z,53.80
2018-05-23T05:22:23.703Z,53.50
2018-05-23T05:24:51.391Z,53.10
2018-05-23T05:27:19.998Z,51.80
2018-05-23T05:29:47.861Z,51.70
2018-05-23T05:32:15.961Z,50.60
2018-05-23T05:34:43.528Z,49.90
2018-05-23T05:37:11.222Z,49.30
2018-05-23T05:39:40.180Z,47.50
2018-05-23T05:42:07.727Z,47.40
2018-05-23T05:44:36.438Z,47.00
2018-05-23T05:47:04.221Z,46.30
2018-05-23T05:49:33.230Z,45.60
2018-05-23T05:52:04.787Z,44.40
2018-05-23T05:54:32.263Z,44.40
2018-05-23T05:56:59.831Z,44.00
2018-05-23T05:59:28.126Z,43.20
2018-05-23T06:01:55.764Z,43.10
2018-05-23T06:04:23.778Z,42.80
2018-05-23T06:06:51.571Z,42.40
2018-05-23T06:09:19.993Z,42.00
2018-05-23T06:11:48.675Z,41.70
2018-05-23T06:16:50.313Z,41.50
2018-05-23T06:19:20.732Z,41.50
2018-05-23T06:21:49.675Z,41.30
2018-05-23T06:24:19.386Z,41.30
2018-05-23T06:26:51.610Z,41.10
2018-05-23T06:29:20.123Z,40.90
2018-05-23T06:31:47.611Z,41.00
2018-05-23T06:34:16.607Z,41.00
2018-05-23T06:36:45.886Z,41.00
2018-05-23T06:39:15.182Z,41.20
2018-05-23T06:41:42.879Z,41.10
2018-05-23T06:44:10.839Z,40.90
2018-05-23T06:46:40.103Z,40.90
2018-05-23T06:49:08.370Z,40.80
2018-05-23T06:51:36.146Z,40.70
2018-05-23T06:54:03.658Z,40.30
2018-05-23T06:56:33.000Z,40.40
2018-05-23T06:59:02.869Z,40.20
2018-05-23T07:01:30.404Z,40.20
2018-05-23T07:04:00.624Z,40.50
2018-05-23T07:06:30.700Z,40.00
2018-05-23T07:08:58.332Z,40.00
2018-05-23T07:13:59.070Z,41.20
2018-05-23T07:16:27.372Z,40.60
2018-05-23T07:18:55.500Z,40.50
2018-05-23T07:21:23.679Z,40.40
2018-05-23T07:23:51.160Z,40.40
2018-05-23T07:26:18.945Z,40.40
2018-05-23T07:28:47.278Z,40.30
2018-05-23T07:38:51.433Z,39.40
2018-05-23T07:41:19.251Z,39.20
2018-05-23T07:43:46.967Z,38.80
2018-05-23T07:46:23.642Z,38.80
2018-05-23T07:48:51.132Z,38.80
2018-05-23T07:51:29.092Z,38.80
2018-05-23T07:53:59.968Z,38.60
2018-05-23T07:56:31.465Z,38.60
2018-05-23T07:59:00.816Z,39.00
2018-05-23T08:04:01.444Z,38.60
2018-05-23T08:06:30.123Z,38.10
2018-05-23T08:08:58.404Z,38.10
2018-05-23T08:11:26.392Z,38.10
2018-05-23T08:13:54.905Z,38.00
2018-05-23T08:16:24.095Z,38.00
2018-05-23T08:18:56.524Z,37.80
2018-05-23T08:21:26.578Z,37.90
2018-05-23T08:23:55.309Z,37.80
2018-05-23T08:26:24.296Z,37.70
2018-05-23T08:28:54.065Z,37.80
2018-05-23T08:33:56.457Z,37.40
2018-05-23T08:36:25.752Z,37.30
2018-05-23T08:38:55.467Z,37.20
2018-05-23T08:41:23.669Z,37.10
2018-05-23T08:43:52.745Z,37.20
2018-05-23T08:46:21.960Z,37.10
2018-05-23T08:51:38.042Z,36.80
2018-05-23T08:54:10.217Z,36.80
2018-05-23T08:59:09.787Z,36.80
2018-05-23T09:04:11.384Z,37.00
2018-05-23T09:06:42.192Z,36.80
2018-05-23T09:11:43.886Z,36.90
2018-05-23T09:14:11.704Z,36.90
2018-05-23T09:16:41.834Z,36.80
2018-05-23T09:19:10.979Z,37.00
2018-05-23T09:21:40.798Z,37.20
2018-05-23T09:24:08.553Z,37.10
2018-05-23T09:31:46.655Z,37.30
2018-05-23T09:34:17.450Z,37.40
2018-05-23T09:36:48.659Z,37.60
2018-05-23T09:39:19.140Z,37.70
2018-05-23T09:41:48.270Z,37.70
2018-05-23T09:52:02.105Z,37.90
2018-05-23T09:54:31.212Z,38.00
2018-05-23T09:59:35.900Z,37.90
2018-05-23T10:04:44.165Z,38.20
2018-05-23T10:07:12.462Z,38.10
2018-05-23T10:09:41.544Z,37.90
2018-05-23T10:12:09.293Z,37.70
2018-05-23T10:14:38.379Z,37.20
2018-05-23T10:19:38.583Z,36.50
2018-05-23T10:22:09.379Z,35.80
2018-05-23T10:32:16.018Z,33.60
2018-05-23T10:37:19.307Z,32.80
2018-05-23T10:42:21.007Z,32.30
2018-05-23T10:44:54.637Z,31.90
2018-05-23T11:00:44.996Z,31.60
2018-05-23T11:05:50.470Z,31.60
2018-05-23T11:27:14.823Z,30.60
2018-05-23T11:29:42.479Z,30.60
2018-05-23T11:37:27.598Z,30.80
2018-05-23T11:39:57.792Z,30.30
2018-05-23T11:42:32.295Z,29.70
2018-05-23T11:45:05.585Z,29.70
2018-05-23T11:52:45.163Z,30.00
2018-05-23T11:57:46.234Z,30.40
2018-05-23T12:00:13.787Z,30.50
2018-05-23T12:05:17.711Z,30.60
2018-05-23T12:11:03.721Z,29.90
2018-05-23T12:13:35.836Z,30.00
2018-05-23T12:21:12.893Z,29.90
2018-05-23T12:23:42.849Z,30.00
2018-05-23T12:26:11.531Z,30.40
2018-05-23T12:28:41.135Z,30.80
2018-05-23T12:33:49.136Z,30.90
2018-05-23T12:38:50.414Z,30.40
2018-05-23T12:46:32.268Z,30.50
2018-05-23T12:49:03.118Z,30.70
2018-05-23T12:57:02.728Z,30.40
2018-05-23T12:59:36.312Z,30.30
2018-05-23T13:28:00.015Z,34.30
2018-05-23T13:41:20.696Z,31.00
2018-05-23T13:48:55.282Z,30.90
2018-05-23T13:54:01.826Z,31.10
2018-05-23T13:56:32.766Z,31.30
2018-05-23T14:19:28.538Z,31.90
2018-05-23T14:22:06.753Z,31.50
2018-05-23T14:27:10.529Z,31.70
2018-05-23T14:32:10.568Z,31.00
2018-05-23T14:34:42.658Z,30.90
2018-05-23T14:37:14.135Z,30.90
2018-05-23T14:39:42.468Z,31.10
2018-05-23T14:42:15.472Z,30.50
2018-05-23T14:44:45.144Z,30.50
2018-05-23T14:47:12.667Z,31.80
2018-05-23T14:49:43.103Z,31.40
2018-05-23T14:52:25.971Z,30.10
2018-05-23T14:57:28.429Z,27.90
2018-05-23T14:59:59.283Z,27.60
2018-05-23T15:04:59.632Z,27.60
2018-05-23T15:07:30.587Z,27.90
2018-05-23T15:10:08.419Z,28.30
2018-05-23T15:15:11.023Z,27.70
2018-05-23T15:17:38.540Z,26.80
2018-05-23T15:20:43.205Z,25.90
2018-05-23T15:23:17.400Z,25.20
2018-05-23T15:25:46.135Z,24.60
2018-05-23T15:28:17.125Z,24.10
2018-05-23T15:35:51.835Z,23.60
2018-05-23T15:40:58.816Z,24.20
2018-05-23T15:43:30.410Z,25.00
2018-05-23T15:46:01.448Z,25.00
2018-05-23T15:48:32.923Z,25.30
2018-05-23T15:51:02.730Z,24.90
2018-05-23T15:53:32.364Z,25.10
2018-05-23T15:56:00.549Z,25.10
2018-05-23T16:01:04.084Z,25.00
2018-05-23T16:03:33.336Z,24.80
2018-05-23T16:13:42.814Z,24.00
2018-05-23T16:18:49.971Z,23.50
2018-05-23T16:23:50.617Z,23.20
2018-05-23T16:26:18.815Z,23.40
2018-05-23T16:31:19.467Z,23.20
2018-05-23T16:33:48.770Z,23.20
2018-05-23T16:36:18.530Z,23.90
2018-05-23T16:38:47.687Z,23.90
2018-05-23T16:41:15.432Z,24.50
2018-05-23T16:43:43.675Z,25.20
2018-05-23T16:46:16.843Z,25.90
2018-05-23T16:48:46.800Z,26.70
2018-05-23T16:51:19.774Z,27.20
2018-05-23T16:53:47.457Z,27.50
2018-05-23T16:56:15.180Z,27.60
2018-05-23T17:01:25.003Z,28.40
2018-05-23T17:03:56.887Z,28.80
2018-05-23T17:08:58.093Z,28.60
2018-05-23T17:11:28.260Z,28.60
2018-05-23T17:13:55.816Z,28.70
2018-05-23T17:16:24.891Z,28.80
2018-05-23T17:21:29.790Z,29.70
2018-05-23T17:23:58.437Z,29.80
2018-05-23T17:26:27.284Z,29.80
2018-05-23T17:29:00.730Z,30.20
2018-05-23T17:31:34.284Z,30.30
2018-05-23T17:36:33.768Z,30.70
2018-05-23T17:41:37.789Z,31.20
2018-05-23T18:07:27.228Z,33.30
2018-05-23T18:15:03.859Z,34.20
2018-05-23T18:25:16.377Z,35.20
2018-05-23T18:30:18.079Z,36.10
2018-05-23T18:32:47.642Z,36.10
2018-05-23T18:35:19.870Z,36.20
2018-05-23T18:37:52.819Z,36.40
2018-05-23T18:45:42.087Z,36.80
2018-05-23T18:53:28.327Z,37.00
2018-05-23T18:55:57.626Z,36.90
2018-05-23T19:53:12.912Z,38.00
2018-05-23T20:00:59.049Z,38.10
2018-05-23T20:08:33.627Z,38.00
2018-05-23T20:11:01.872Z,38.00
2018-05-23T20:18:33.445Z,38.10
2018-05-23T20:26:10.245Z,38.50
2018-05-23T20:28:41.083Z,38.40
2018-05-23T20:31:12.009Z,38.60
2018-05-23T20:33:42.367Z,38.50
2018-05-23T20:38:43.628Z,38.60
2018-05-23T20:41:16.157Z,38.70
2018-05-23T20:43:45.231Z,38.80
2018-05-23T20:46:13.263Z,39.00
2018-05-23T20:48:42.043Z,39.00
2018-05-23T20:51:10.324Z,39.10
2018-05-23T20:53:39.325Z,39.10
2018-05-23T20:56:07.216Z,39.20
2018-05-23T20:58:35.414Z,39.30
2018-05-23T21:01:17.860Z,39.30
2018-05-23T21:03:45.575Z,39.50
2018-05-23T21:06:13.370Z,39.50
2018-05-23T21:08:41.750Z,39.70
2018-05-23T21:11:09.284Z,39.80
2018-05-23T21:13:38.365Z,40.00
2018-05-23T21:16:12.996Z,40.20
2018-05-23T21:18:41.581Z,40.40
2018-05-23T21:21:09.235Z,40.50
2018-05-23T21:23:36.762Z,40.60
2018-05-23T21:26:05.921Z,40.80
2018-05-23T21:28:34.723Z,41.00
2018-05-23T21:31:07.467Z,41.20
2018-05-23T21:33:36.597Z,41.50
2018-05-23T21:36:04.367Z,41.80
2018-05-23T21:38:33.495Z,41.90
2018-05-23T21:41:08.414Z,42.10
2018-05-23T21:43:36.921Z,42.80
2018-05-23T21:46:04.420Z,42.80
2018-05-23T21:48:32.599Z,43.30
2018-05-23T21:51:05.364Z,43.70
2018-05-23T21:53:32.900Z,44.30
2018-05-23T21:56:01.154Z,44.90
2018-05-23T21:58:28.947Z,45.30
2018-05-23T22:01:08.002Z,45.50
2018-05-23T22:03:35.700Z,45.70
2018-05-23T22:06:04.406Z,45.90
2018-05-23T22:08:32.244Z,45.90
2018-05-23T22:11:00.712Z,46.20
2018-05-23T22:13:29.203Z,46.60
2018-05-23T22:15:56.679Z,46.50
2018-05-23T22:18:24.537Z,46.60
2018-05-23T22:20:52.224Z,46.80
2018-05-23T22:23:19.971Z,47.00
2018-05-23T22:25:48.260Z,48.90
2018-05-23T22:28:15.942Z,48.90
2018-05-23T22:30:43.841Z,49.70
2018-05-23T22:33:11.491Z,49.70
2018-05-23T22:35:38.987Z,49.20
2018-05-23T22:38:06.557Z,48.30
2018-05-23T22:40:34.287Z,47.20
2018-05-23T22:43:02.779Z,46.20
2018-05-23T22:45:31.916Z,45.60
2018-05-23T22:50:37.676Z,45.00
2018-05-23T22:53:05.405Z,44.80
2018-05-23T22:55:33.696Z,44.70
2018-05-23T22:58:01.855Z,44.70
2018-05-23T23:00:31.355Z,44.80
2018-05-23T23:02:59.793Z,45.00
2018-05-23T23:05:27.314Z,45.10
2018-05-23T23:07:54.799Z,45.20
2018-05-23T23:10:27.448Z,45.20
2018-05-23T23:12:55.845Z,45.10
2018-05-23T23:15:23.575Z,45.10
2018-05-23T23:17:51.880Z,45.10
2018-05-23T23:20:19.415Z,45.00
2018-05-23T23:22:46.934Z,45.00
2018-05-23T23:25:14.406Z,45.00
2018-05-23T23:27:43.108Z,45.10
2018-05-23T23:30:15.700Z,45.00
2018-05-23T23:32:43.198Z,45.20
2018-05-23T23:35:10.695Z,45.20
2018-05-23T23:37:38.172Z,45.20
2018-05-23T23:40:11.220Z,45.30
2018-05-23T23:42:38.730Z,45.30
2018-05-23T23:45:06.210Z,45.20
2018-05-23T23:47:33.683Z,45.30
2018-05-23T23:50:01.176Z,45.40
2018-05-23T23:52:28.986Z,45.40
2018-05-23T23:54:56.730Z,45.30
2018-05-23T23:57:25.287Z,45.30
2018-05-23T23:59:52.812Z,45.20
